Time;durP1;ratioP1;P1;durP2;ratioP2;P2;SDS_P1;SDS_P2;PMS_P1;PMS_P2;Temp;Humidity;BMP_temperature;BMP_pressure;BME280_temperature;BME280_humidity;BME280_pressure;Samples;Min_cycle;Max_cycle;Signal;HPM_P1;HPM_P2
2024/01/13 00:01:01;;;;;;;;;;;;;;;16.73;39.04;100824.44;10329339;28;1894;-77
2024/01/13 00:05:57;;;;;;;;;;;;;;;16.69;38.78;100802.59;10329234;28;902;-76
2024/01/13 00:10:53;;;;;;;;;;;;;;;16.69;39.19;100799.97;10328554;28;993;-77
2024/01/13 00:15:49;;;;;;;;;;;;;;;16.68;39.11;100790.31;10328874;28;928;-77
2024/01/13 00:20:45;;;;;;;;;;;;;;;16.67;39.01;100788.59;10329285;28;1955;-77
2024/01/13 00:25:41;;;;;;;;;;;;;;;16.67;39.12;100778.06;10329049;28;977;-77
2024/01/13 00:30:37;;;;;;;;;;;;;;;16.67;38.85;100777.19;10328340;28;944;-77
2024/01/13 00:35:33;;;;;;;;;;;;;;;16.66;39.02;100778.94;10328662;28;1273;-77
2024/01/13 00:40:29;;;;;;;;;;;;;;;16.67;39.04;100772.78;10327902;28;1963;-77
2024/01/13 00:45:25;;;;;;;;;;;;;;;16.65;39.01;100754.38;10328275;28;845;-77
2024/01/13 00:50:20;;;;;;;;;;;;;;;16.67;38.98;100757.00;10327678;28;858;-77
2024/01/13 00:55:16;;;;;;;;;;;;;;;16.68;38.83;100753.44;10327129;28;896;-77
2024/01/13 01:00:12;;;;;;;;;;;;;;;16.63;38.98;100745.66;10327254;28;1902;-77
2024/01/13 01:05:08;;;;;;;;;;;;;;;16.64;38.80;100746.53;10326951;28;861;-77
2024/01/13 01:10:04;;;;;;;;;;;;;;;16.66;38.85;100744.72;10326836;28;856;-77
2024/01/13 01:15:00;;;;;;;;;;;;;;;16.61;38.87;100743.97;10326553;28;863;-76
2024/01/13 01:19:56;;;;;;;;;;;;;;;16.63;38.67;100734.25;10326477;28;1961;-77
2024/01/13 01:24:52;;;;;;;;;;;;;;;16.65;38.62;100733.31;10325910;28;1311;-77
2024/01/13 01:29:48;;;;;;;;;;;;;;;16.65;38.66;100738.59;10326076;28;782;-77
2024/01/13 01:34:44;;;;;;;;;;;;;;;16.63;38.74;100724.59;10326927;28;886;-77
2024/01/13 01:39:40;;;;;;;;;;;;;;;16.64;38.60;100715.81;10325113;28;1977;-77
2024/01/13 01:44:36;;;;;;;;;;;;;;;16.62;38.97;100716.75;10325731;28;894;-77
2024/01/13 01:49:32;;;;;;;;;;;;;;;16.62;38.71;100730.78;10326211;28;869;-77
2024/01/13 01:54:27;;;;;;;;;;;;;;;16.62;38.76;100719.38;10325506;28;846;-77
2024/01/13 01:59:23;;;;;;;;;;;;;;;16.60;38.84;100708.88;10326134;28;1902;-76
2024/01/13 02:04:19;;;;;;;;;;;;;;;16.59;38.61;100707.16;10325346;28;853;-77
2024/01/13 02:09:15;;;;;;;;;;;;;;;16.61;38.86;100707.09;10336718;28;861;-77
2024/01/13 02:14:11;;;;;;;;;;;;;;;16.59;38.74;100704.53;10339354;28;944;-77
2024/01/13 02:19:07;;;;;;;;;;;;;;;16.57;38.91;100701.06;10338600;28;1894;-77
2024/01/13 02:24:03;;;;;;;;;;;;;;;16.60;38.61;100706.25;10339369;28;970;-77
2024/01/13 02:28:59;;;;;;;;;;;;;;;16.57;38.86;100681.78;10338414;28;814;-77
2024/01/13 02:33:55;;;;;;;;;;;;;;;16.56;38.84;100674.78;10338382;28;830;-76
2024/01/13 02:38:51;;;;;;;;;;;;;;;16.58;38.61;100667.69;10338500;28;1906;-77
2024/01/13 02:43:47;;;;;;;;;;;;;;;16.56;38.81;100653.75;10338213;28;782;-77
2024/01/13 02:48:43;;;;;;;;;;;;;;;16.55;38.70;100646.72;10338110;28;763;-77
2024/01/13 02:53:38;;;;;;;;;;;;;;;16.61;38.55;100659.72;10338041;28;806;-77
2024/01/13 02:58:34;;;;;;;;;;;;;;;16.57;38.72;100655.47;10337882;28;1886;-77
2024/01/13 03:03:30;;;;;;;;;;;;;;;16.55;38.75;100637.06;10337290;28;837;-77
2024/01/13 03:08:26;;;;;;;;;;;;;;;16.58;38.58;100636.13;10337745;28;856;-77
2024/01/13 03:13:22;;;;;;;;;;;;;;;16.55;38.75;100618.63;10337004;28;1287;-77
2024/01/13 03:18:18;;;;;;;;;;;;;;;16.55;38.58;100604.63;10335392;28;1893;-77
2024/01/13 03:23:14;;;;;;;;;;;;;;;16.57;38.65;100608.09;10330927;28;964;-77
2024/01/13 03:28:10;;;;;;;;;;;;;;;16.55;38.94;100609.88;10330831;28;896;-77
2024/01/13 03:33:05;;;;;;;;;;;;;;;16.53;38.64;100607.31;10330656;28;782;-77
2024/01/13 03:38:01;;;;;;;;;;;;;;;16.55;38.75;100594.09;10330618;28;1987;-77
2024/01/13 03:42:57;;;;;;;;;;;;;;;16.55;38.83;100599.34;10330044;28;949;-77
2024/01/13 03:47:53;;;;;;;;;;;;;;;16.53;38.88;100580.97;10330097;28;906;-77
2024/01/13 03:52:49;;;;;;;;;;;;;;;16.56;38.85;100577.41;10331151;28;817;-77
2024/01/13 03:57:45;;;;;;;;;;;;;;;16.53;38.92;100574.81;10329648;28;1898;-77
2024/01/13 04:02:41;;;;;;;;;;;;;;;16.54;38.91;100579.22;10329574;28;821;-77
2024/01/13 04:07:36;;;;;;;;;;;;;;;16.55;39.08;100563.38;10330274;28;904;-77
2024/01/13 04:12:32;;;;;;;;;;;;;;;16.53;38.80;100567.81;10329791;28;859;-77
2024/01/13 04:17:28;;;;;;;;;;;;;;;16.53;38.98;100567.81;10329458;28;1894;-76
2024/01/13 04:22:24;;;;;;;;;;;;;;;16.53;39.06;100567.81;10328166;28;844;-77
2024/01/13 04:27:20;;;;;;;;;;;;;;;16.57;38.77;100566.81;10328558;28;866;-77
2024/01/13 04:32:16;;;;;;;;;;;;;;;16.61;38.86;100559.72;10328566;28;864;-77
2024/01/13 04:37:12;;;;;;;;;;;;;;;16.63;38.84;100545.59;10328280;28;1905;-77
2024/01/13 04:42:07;;;;;;;;;;;;;;;16.64;38.64;100550.00;10327329;28;869;-77
2024/01/13 04:47:03;;;;;;;;;;;;;;;16.69;38.61;100547.25;10327707;28;814;-77
2024/01/13 04:51:59;;;;;;;;;;;;;;;16.66;38.76;100534.13;10328083;28;889;-77
2024/01/13 04:56:55;;;;;;;;;;;;;;;16.69;38.59;100539.34;10327228;28;1886;-75
2024/01/13 05:01:51;;;;;;;;;;;;;;;16.71;38.47;100536.66;10327258;28;983;-77
2024/01/13 05:06:47;;;;;;;;;;;;;;;16.68;38.84;100534.97;10326947;28;821;-77
2024/01/13 05:11:43;;;;;;;;;;;;;;;16.71;38.68;100519.09;10327374;28;782;-77
2024/01/13 05:16:39;;;;;;;;;;;;;;;16.74;38.65;100523.41;10327009;28;1871;-77
2024/01/13 05:21:34;;;;;;;;;;;;;;;16.72;38.67;100523.47;10326487;28;870;-77
2024/01/13 05:26:30;;;;;;;;;;;;;;;16.78;38.67;100522.47;10326278;28;765;-77
2024/01/13 05:31:26;;;;;;;;;;;;;;;16.79;38.69;100518.91;10326125;28;1009;-77
2024/01/13 05:36:22;;;;;;;;;;;;;;;16.79;38.57;100527.69;10326086;28;1902;-77
2024/01/13 05:41:18;;;;;;;;;;;;;;;16.81;38.59;100523.25;10325324;28;798;-77
2024/01/13 05:46:14;;;;;;;;;;;;;;;16.79;38.71;100530.34;10326936;28;846;-77
2024/01/13 05:51:10;;;;;;;;;;;;;;;16.81;38.61;100528.50;10325569;28;822;-77
2024/01/13 05:56:06;;;;;;;;;;;;;;;16.83;38.61;100526.69;10325698;28;915;-77
2024/01/13 06:01:02;;;;;;;;;;;;;;;16.81;38.68;100520.59;10326025;28;1909;-77
2024/01/13 06:05:58;;;;;;;;;;;;;;;16.86;38.53;100520.50;10325380;28;896;-77
2024/01/13 06:10:54;;;;;;;;;;;;;;;16.85;38.48;100521.41;10326457;28;889;-77
2024/01/13 06:15:49;;;;;;;;;;;;;;;16.84;38.68;100502.09;10324618;28;802;-77
2024/01/13 06:20:45;;;;;;;;;;;;;;;16.86;38.55;100505.53;10325075;28;1969;-77
2024/01/13 06:25:41;;;;;;;;;;;;;;;16.85;38.62;100497.72;10325540;28;961;-77
2024/01/13 06:30:37;;;;;;;;;;;;;;;16.86;38.47;100500.28;10324902;28;938;-77
2024/01/13 06:35:33;;;;;;;;;;;;;;;16.86;38.56;100500.28;10324678;28;1413;-77
2024/01/13 06:40:29;;;;;;;;;;;;;;;16.86;38.38;100484.47;10324671;28;1910;-78
2024/01/13 06:45:25;;;;;;;;;;;;;;;16.85;38.49;100482.78;10325176;28;814;-76
2024/01/13 06:50:20;;;;;;;;;;;;;;;16.91;38.37;100465.06;10325215;28;791;-77
2024/01/13 06:55:16;;;;;;;;;;;;;;;16.92;38.46;100441.31;10330011;28;910;-77
2024/01/13 07:00:12;;;;;;;;;;;;;;;16.93;38.58;100415.88;10331827;28;1965;-76
2024/01/13 07:05:10;;;;;;;;;;;;;;;16.92;38.63;100420.25;10332292;28;929;-77
2024/01/13 07:10:06;;;;;;;;;;;;;;;16.88;38.58;100412.50;10331474;28;875;-76
2024/01/13 07:15:03;;;;;;;;;;;;;;;16.84;38.51;100423.09;10330673;28;933;-77
2024/01/13 07:19:59;;;;;;;;;;;;;;;16.80;38.66;100425.88;10331057;28;1985;-77
2024/01/13 07:24:55;;;;;;;;;;;;;;;16.74;38.91;100404.94;10330976;28;909;-75
2024/01/13 07:29:51;;;;;;;;;;;;;;;16.71;38.87;100384.84;10331508;28;778;-76
2024/01/13 07:34:47;;;;;;;;;;;;;;;16.56;39.04;100383.53;10331196;28;1017;-76
2024/01/13 07:39:42;;;;;;;;;;;;;;;16.57;39.10;100365.94;10331584;28;1910;-77
2024/01/13 07:44:38;;;;;;;;;;;;;;;16.59;39.10;100356.25;10330146;28;971;-77
2024/01/13 07:49:34;;;;;;;;;;;;;;;16.63;38.88;100318.38;10330153;28;829;-76
2024/01/13 07:54:30;;;;;;;;;;;;;;;16.67;39.05;100314.78;10330580;28;860;-76
2024/01/13 07:59:26;;;;;;;;;;;;;;;16.72;39.04;100302.34;10329648;28;1947;-76
2024/01/13 08:04:22;;;;;;;;;;;;;;;16.80;38.45;100318.78;10329217;28;917;-76
2024/01/13 08:09:18;;;;;;;;;;;;;;;16.84;38.47;100309.88;10329903;28;825;-76
2024/01/13 08:14:14;;;;;;;;;;;;;;;16.83;39.00;100326.59;10330356;28;897;-76
2024/01/13 08:19:12;;;;;;;;;;;;;;;16.88;38.37;100312.44;10329415;28;1902;-77
2024/01/13 08:24:08;;;;;;;;;;;;;;;16.85;38.41;100319.53;10329545;28;806;-77
2024/01/13 08:29:04;;;;;;;;;;;;;;;16.85;38.92;100313.41;10329107;28;869;-77
2024/01/13 08:34:01;;;;;;;;;;;;;;;16.91;38.43;100317.63;10327800;28;845;-77
2024/01/13 08:38:57;;;;;;;;;;;;;;;16.89;38.41;100314.16;10327470;28;1984;-77
2024/01/13 08:43:53;;;;;;;;;;;;;;;16.95;38.34;100309.59;10328524;28;874;-77
2024/01/13 08:48:49;;;;;;;;;;;;;;;16.94;38.25;100301.72;10328330;28;803;-77
2024/01/13 08:53:45;;;;;;;;;;;;;;;16.96;38.08;100299.91;10327456;28;897;-77
2024/01/13 08:58:41;;;;;;;;;;;;;;;16.99;37.87;100308.56;10327800;28;1910;-76
2024/01/13 09:03:37;;;;;;;;;;;;;;;16.89;38.33;100293.94;10327142;28;837;-77
2024/01/13 09:08:33;;;;;;;;;;;;;;;16.88;38.39;100289.59;10327551;28;830;-77
2024/01/13 09:13:29;;;;;;;;;;;;;;;16.94;37.96;100278.88;10326741;28;929;-77
2024/01/13 09:18:25;;;;;;;;;;;;;;;16.92;38.04;100306.16;10326431;28;1898;-77
2024/01/13 09:23:21;;;;;;;;;;;;;;;17.02;37.98;100294.44;10327010;28;978;-77
2024/01/13 09:28:16;;;;;;;;;;;;;;;16.95;38.05;100295.53;10326908;28;814;-77
2024/01/13 09:33:12;;;;;;;;;;;;;;;16.98;37.99;100306.00;10326111;28;846;-76
2024/01/13 09:38:08;;;;;;;;;;;;;;;17.09;37.64;100273.13;10325633;28;1918;-77
2024/01/13 09:43:04;;;;;;;;;;;;;;;16.94;38.02;100267.47;10326380;28;964;-71
2024/01/13 09:48:00;;;;;;;;;;;;;;;16.75;38.51;100291.72;10325752;28;774;-70
2024/01/13 09:52:56;;;;;;;;;;;;;;;16.78;38.44;100302.19;10325908;28;889;-78
2024/01/13 09:57:52;;;;;;;;;;;;;;;16.63;38.72;100299.97;10325438;28;1897;-77
2024/01/13 10:02:47;;;;;;;;;;;;;;;16.51;38.64;100288.06;10326085;28;774;-77
2024/01/13 10:07:43;;;;;;;;;;;;;;;16.40;38.24;100282.22;10325973;28;834;-76
2024/01/13 10:12:39;;;;;;;;;;;;;;;16.36;38.17;100267.44;10325843;28;878;-75
2024/01/13 10:17:35;;;;;;;;;;;;;;;16.38;37.56;100255.97;10325081;28;1898;-75
2024/01/13 10:22:31;;;;;;;;;;;;;;;16.30;37.80;100268.47;10325682;28;992;-76
2024/01/13 10:27:27;;;;;;;;;;;;;;;16.26;37.80;100256.31;10325632;28;905;-77
2024/01/13 10:32:23;;;;;;;;;;;;;;;16.48;37.17;100258.31;10333686;28;865;-79
2024/01/13 10:37:19;;;;;;;;;;;;;;;16.68;36.55;100265.63;10333018;28;1978;-76
2024/01/13 10:42:16;;;;;;;;;;;;;;;16.67;36.52;100251.59;10332709;28;826;-76
2024/01/13 10:47:12;;;;;;;;;;;;;;;16.73;36.36;100248.78;10332473;28;859;-77
2024/01/13 10:52:08;;;;;;;;;;;;;;;16.78;36.48;100241.63;10332229;28;844;-76
2024/01/13 10:57:03;;;;;;;;;;;;;;;16.67;36.92;100235.81;10332549;28;1901;-75
2024/01/13 11:01:59;;;;;;;;;;;;;;;16.83;36.51;100212.53;10332438;28;834;-77
2024/01/13 11:06:55;;;;;;;;;;;;;;;16.82;36.48;100214.31;10331711;28;890;-77
2024/01/13 11:11:51;;;;;;;;;;;;;;;16.86;36.51;100205.38;10331495;28;786;-75
2024/01/13 11:16:47;;;;;;;;;;;;;;;16.84;36.71;100191.41;10331273;28;1961;-77
2024/01/13 11:21:48;;;;;;;;;;;;;;;16.90;36.59;100186.84;10331732;28;822;-75
2024/01/13 11:26:44;;;;;;;;;;;;;;;16.81;37.01;100173.06;10330948;28;909;-75
2024/01/13 11:31:40;;;;;;;;;;;;;;;16.89;37.06;100161.44;10331404;28;873;-75
2024/01/13 11:36:36;;;;;;;;;;;;;;;16.91;37.02;100152.59;10330846;28;1978;-75
2024/01/13 11:41:32;;;;;;;;;;;;;;;16.90;37.08;100145.59;10329141;28;904;-75
2024/01/13 11:46:27;;;;;;;;;;;;;;;16.75;37.57;100148.72;10330912;28;932;-78
2024/01/13 11:51:23;;;;;;;;;;;;;;;16.56;37.79;100153.72;10330718;28;848;-78
2024/01/13 11:56:19;;;;;;;;;;;;;;;16.51;38.02;100150.34;10329837;28;889;-78
2024/01/13 12:01:17;;;;;;;;;;;;;;;16.49;38.29;100150.41;10328092;28;1890;-77
2024/01/13 12:06:12;;;;;;;;;;;;;;;16.44;38.36;100139.16;10328322;28;913;-77
2024/01/13 12:11:08;;;;;;;;;;;;;;;16.49;37.92;100125.84;10329187;28;818;-78
2024/01/13 12:16:04;;;;;;;;;;;;;;;16.44;38.32;100121.59;10329026;28;897;-79
2024/01/13 12:21:00;;;;;;;;;;;;;;;16.42;38.27;100099.72;10328593;28;1898;-78
2024/01/13 12:25:56;;;;;;;;;;;;;;;16.42;38.20;100094.47;10328116;28;798;-77
2024/01/13 12:30:52;;;;;;;;;;;;;;;16.47;38.00;100088.22;10328440;28;882;-78
2024/01/13 12:35:48;;;;;;;;;;;;;;;16.42;38.33;100078.69;10327373;28;1298;-78
2024/01/13 12:40:44;;;;;;;;;;;;;;;16.40;38.17;100061.22;10327755;28;1906;-78
2024/01/13 12:45:39;;;;;;;;;;;;;;;16.39;38.46;100051.63;10328017;28;856;-75
2024/01/13 12:50:35;;;;;;;;;;;;;;;16.39;38.30;100046.34;10327047;28;906;-79
2024/01/13 12:55:31;;;;;;;;;;;;;;;16.39;38.37;100049.84;10326890;28;897;-78
2024/01/13 13:00:29;;;;;;;;;;;;;;;16.38;38.45;100053.41;10327180;28;1949;-77
2024/01/13 13:05:24;;;;;;;;;;;;;;;16.38;38.38;100050.75;10326612;28;821;-79
2024/01/13 13:10:20;;;;;;;;;;;;;;;16.38;38.59;100053.41;10326242;28;811;-79
2024/01/13 13:15:16;;;;;;;;;;;;;;;16.39;38.58;100047.22;10326680;28;849;-79
2024/01/13 13:20:12;;;;;;;;;;;;;;;16.39;38.52;100043.72;10326273;28;1894;-79
2024/01/13 13:25:08;;;;;;;;;;;;;;;16.38;38.47;100037.59;10325851;28;774;-77
2024/01/13 13:30:05;;;;;;;;;;;;;;;16.60;38.26;100044.78;10326005;28;806;-82
2024/01/13 13:35:00;;;;;;;;;;;;;;;16.80;38.28;100028.34;10325170;28;913;-83
2024/01/13 13:39:56;;;;;;;;;;;;;;;16.84;38.49;100014.16;10326018;28;1959;-78
2024/01/13 13:44:53;;;;;;;;;;;;;;;16.87;38.36;100014.03;10325414;28;1117;-83
2024/01/13 13:49:49;;;;;;;;;;;;;;;16.65;38.85;100011.28;10325894;28;837;-74
2024/01/13 13:54:45;;;;;;;;;;;;;;;16.82;38.75;100006.34;10324978;28;786;-73
2024/01/13 13:59:41;;;;;;;;;;;;;;;16.95;38.57;100006.75;10324996;28;1980;-74
2024/01/13 14:04:37;;;;;;;;;;;;;;;16.89;38.88;100012.22;10323624;28;1287;-75
2024/01/13 14:09:33;;;;;;;;;;;;;;;16.95;38.91;100014.66;10325467;28;901;-75
2024/01/13 14:14:29;;;;;;;;;;;;;;;16.93;38.72;100005.09;10324555;28;957;-74
2024/01/13 14:19:25;;;;;;;;;;;;;;;16.94;39.01;99998.91;10324932;28;1898;-75
2024/01/13 14:24:21;;;;;;;;;;;;;;;16.95;39.01;99993.59;10325065;28;786;-74
2024/01/13 14:29:16;;;;;;;;;;;;;;;16.94;38.87;99981.31;10324774;28;890;-74
2024/01/13 14:34:12;;;;;;;;;;;;;;;16.85;38.80;99969.34;10324870;28;937;-73
2024/01/13 14:39:08;;;;;;;;;;;;;;;16.83;39.04;99965.06;10323759;28;1914;-73
2024/01/13 14:44:04;;;;;;;;;;;;;;;16.76;39.02;99948.59;10324266;28;782;-74
2024/01/13 14:49:00;;;;;;;;;;;;;;;16.73;38.93;99951.31;10324761;28;890;-75
2024/01/13 14:53:56;;;;;;;;;;;;;;;16.58;39.16;99943.97;10324303;28;865;-73
2024/01/13 14:58:52;;;;;;;;;;;;;;;16.55;39.10;99941.44;10324537;28;1894;-74
2024/01/13 15:03:48;;;;;;;;;;;;;;;16.57;38.92;99943.13;10323762;28;773;-76
2024/01/13 15:08:44;;;;;;;;;;;;;;;16.58;39.04;99949.22;10323587;28;925;-74
2024/01/13 15:13:40;;;;;;;;;;;;;;;16.61;38.95;99952.63;10323082;28;1018;-74
2024/01/13 15:18:36;;;;;;;;;;;;;;;16.64;38.94;99942.00;10330803;28;1969;-73
2024/01/13 15:23:31;;;;;;;;;;;;;;;16.70;38.96;99951.44;10331226;28;849;-73
2024/01/13 15:28:27;;;;;;;;;;;;;;;16.74;39.14;99949.53;10330652;28;889;-73
2024/01/13 15:33:23;;;;;;;;;;;;;;;16.74;39.15;99934.63;10330909;28;885;-73
2024/01/13 15:38:21;;;;;;;;;;;;;;;16.81;39.05;99933.50;10330226;28;1914;-73
2024/01/13 15:43:16;;;;;;;;;;;;;;;16.89;38.95;99914.81;10329889;28;810;-74
2024/01/13 15:48:14;;;;;;;;;;;;;;;16.83;38.99;99909.78;10330692;28;837;-74
2024/01/13 15:53:09;;;;;;;;;;;;;;;16.89;39.14;99914.81;10329447;28;929;-73
2024/01/13 15:58:05;;;;;;;;;;;;;;;16.94;38.83;99891.81;10329583;28;1890;-73
2024/01/13 16:03:01;;;;;;;;;;;;;;;16.93;38.84;99905.03;10329149;28;778;-73
2024/01/13 16:07:57;;;;;;;;;;;;;;;16.88;39.09;99901.72;10329231;28;940;-74
2024/01/13 16:12:53;;;;;;;;;;;;;;;16.82;39.48;99892.25;10329237;28;782;-73
2024/01/13 16:17:49;;;;;;;;;;;;;;;16.87;39.13;99892.94;10329062;28;1894;-73
2024/01/13 16:22:46;;;;;;;;;;;;;;;16.87;38.88;99887.66;10328951;28;781;-73
2024/01/13 16:27:42;;;;;;;;;;;;;;;16.87;38.87;99869.25;10328834;28;887;-73
2024/01/13 16:32:38;;;;;;;;;;;;;;;16.89;38.93;99887.63;10329431;28;818;-73
2024/01/13 16:37:35;;;;;;;;;;;;;;;16.87;39.00;99892.94;10328343;28;1984;-73
2024/01/13 16:42:30;;;;;;;;;;;;;;;16.86;38.83;99889.44;10328327;28;901;-73
2024/01/13 16:47:26;;;;;;;;;;;;;;;16.92;38.60;99896.25;10328543;28;827;-73
2024/01/13 16:52:22;;;;;;;;;;;;;;;17.03;38.05;99880.09;10328296;28;981;-73
2024/01/13 16:57:18;;;;;;;;;;;;;;;16.97;38.40;99864.50;10327454;28;1959;-73
2024/01/13 17:02:14;;;;;;;;;;;;;;;16.96;38.36;99857.53;10327320;28;802;-73
2024/01/13 17:07:10;;;;;;;;;;;;;;;16.94;38.18;99854.94;10327160;28;979;-73
2024/01/13 17:12:06;;;;;;;;;;;;;;;17.01;37.93;99845.91;10327540;28;914;-73
2024/01/13 17:17:02;;;;;;;;;;;;;;;16.94;38.10;99856.72;10327296;28;1963;-73
2024/01/13 17:22:00;;;;;;;;;;;;;;;16.90;38.51;99848.09;10327807;28;865;-73
2024/01/13 17:26:56;;;;;;;;;;;;;;;16.92;38.19;99848.88;10326362;28;889;-73
2024/01/13 17:31:52;;;;;;;;;;;;;;;16.88;38.47;99849.91;10326270;28;877;-73
2024/01/13 17:36:48;;;;;;;;;;;;;;;17.01;37.94;99852.94;10325737;28;1922;-73
2024/01/13 17:41:44;;;;;;;;;;;;;;;16.91;38.27;99843.69;10326327;28;817;-74
2024/01/13 17:46:40;;;;;;;;;;;;;;;16.83;38.31;99838.69;10325878;28;776;-79
2024/01/13 17:51:36;;;;;;;;;;;;;;;16.88;38.16;99834.13;10326345;28;869;-76
2024/01/13 17:56:32;;;;;;;;;;;;;;;16.85;38.48;99818.44;10325867;28;893;-79
2024/01/13 18:01:28;;;;;;;;;;;;;;;16.96;38.24;99823.31;10325414;28;1965;-78
2024/01/13 18:06:24;;;;;;;;;;;;;;;16.96;37.88;99804.88;10324859;28;973;-78
2024/01/13 18:11:19;;;;;;;;;;;;;;;16.98;38.12;99805.69;10325424;28;804;-78
2024/01/13 18:16:15;;;;;;;;;;;;;;;16.93;38.21;99826.06;10325361;28;909;-78
2024/01/13 18:21:12;;;;;;;;;;;;;;;16.99;37.97;99818.75;10325138;28;1901;-79
2024/01/13 18:26:10;;;;;;;;;;;;;;;16.92;38.11;99827.81;10324898;28;870;-79
2024/01/13 18:31:06;;;;;;;;;;;;;;;17.00;37.98;99831.03;10324918;28;933;-76
2024/01/13 18:36:01;;;;;;;;;;;;;;;16.97;38.00;99822.38;10324754;28;1296;-75
2024/01/13 18:40:57;;;;;;;;;;;;;;;16.92;38.46;99822.53;10325276;28;1905;-69
2024/01/13 18:45:53;;;;;;;;;;;;;;;16.99;38.70;99823.19;10324244;28;957;-73
2024/01/13 18:50:49;;;;;;;;;;;;;;;17.09;38.78;99824.53;10329645;28;814;-72
2024/01/13 18:55:45;;;;;;;;;;;;;;;17.04;38.64;99815.94;10332902;28;809;-73
2024/01/13 19:00:43;;;;;;;;;;;;;;;17.11;38.70;99816.56;10332725;28;1898;-72
2024/01/13 19:05:39;;;;;;;;;;;;;;;17.03;38.66;99803.72;10331852;28;967;-72
2024/01/13 19:10:36;;;;;;;;;;;;;;;17.07;38.72;99805.28;10331707;28;778;-73
2024/01/13 19:15:32;;;;;;;;;;;;;;;17.23;38.36;99800.28;10331459;28;977;-78
2024/01/13 19:29:55;;;;;;;;;;;17.40;43.30;;;16.95;39.23;99782.94;10319947;28;1393;-78
2024/01/13 19:34:51;;;;;;;;;;;17.20;42.80;;;16.74;39.23;99776.72;10319920;28;928;-79
2024/01/13 19:39:48;;;;;;;;;;;17.10;42.90;;;16.64;39.61;99783.25;10320498;28;834;-78
2024/01/13 19:44:43;;;;;;;;;;;17.00;42.60;;;16.59;39.44;99780.78;10318902;28;1095;-78
2024/01/13 19:49:40;;;;;;;;;;;;;;;16.53;39.66;99772.25;10319904;28;2335;-83
2024/01/13 19:54:36;;;;;;;;;;;;;;;16.50;39.65;99773.22;10319748;28;892;-77
2024/01/13 19:59:32;;;;;;;;;;;;;;;16.47;39.36;99767.22;10318922;28;914;-78
2024/01/13 20:04:28;;;;;;;;;;;;;;;16.44;39.41;99760.28;10319721;28;857;-79
2024/01/13 20:09:24;;;;;;;;;;;;;;;16.42;39.47;99754.22;10318452;28;1889;-81
2024/01/13 20:14:19;;;;;;;;;;;;;;;16.39;39.56;99734.16;10318318;28;769;-81
2024/01/13 20:19:15;;;;;;;;;;;;;;;16.38;39.47;99745.59;10318334;28;873;-81
2024/01/13 20:24:11;;;;;;;;;;;;;;;16.38;39.51;99735.09;10317905;28;777;-81
2024/01/13 20:29:07;;;;;;;;;;;;;;;16.36;39.34;99733.44;10353417;28;1889;-81
2024/01/13 20:34:03;;;;;;;;;;;;;;;16.36;39.34;99726.38;10358740;28;985;-81
2024/01/13 20:38:59;;;;;;;;;;;;;;;16.35;39.45;99722.06;10344707;28;858;-81
2024/01/13 20:43:55;;;;;;;;;;;;;;;16.32;39.25;99714.28;10330952;28;860;-81
2024/01/13 20:48:51;;;;;;;;;;;;;;;16.31;39.45;99691.50;10330875;28;1973;-81
2024/01/13 20:53:48;;;;;;;;;;;;;;;16.28;39.22;99696.88;10330882;28;798;-81
2024/01/13 20:58:44;;;;;;;;;;;;;;;16.27;39.38;99689.94;10330380;28;1112;-81
2024/01/13 21:03:40;;;;;;;;;;;;;;;16.25;39.28;99686.50;10330213;28;779;-81
2024/01/13 21:08:36;;;;;;;;;;;;;;;16.25;39.23;99698.78;10330710;28;1945;-80
2024/01/13 21:13:32;;;;;;;;;;;;;;;16.23;39.24;99683.06;10329803;28;880;-81
2024/01/13 21:18:28;;;;;;;;;;;;;;;16.21;39.10;99669.09;10329638;28;902;-81
2024/01/13 21:23:24;;;;;;;;;;;;;;;16.20;39.36;99675.28;10330043;28;877;-81
2024/01/13 21:28:20;;;;;;;;;;;;;;;16.21;39.23;99663.84;10329387;28;1906;-81
2024/01/13 21:33:16;;;;;;;;;;;;;;;16.18;39.17;99645.56;10329050;28;1134;-81
2024/01/13 21:38:14;;;;;;;;;;;;;;;16.17;39.31;99646.47;10328888;28;863;-81
2024/01/13 21:43:10;;;;;;;;;;;;;;;16.18;39.26;99640.28;10329207;28;892;-81
2024/01/13 21:48:06;;;;;;;;;;;;;;;16.18;39.17;99648.19;10328898;28;1969;-81
2024/01/13 21:53:02;;;;;;;;;;;;;;;16.16;39.21;99637.72;10327868;28;811;-81
2024/01/13 21:57:57;;;;;;;;;;;;;;;16.15;39.11;99641.25;10328730;28;837;-81
2024/01/13 22:02:54;;;;;;;;;;;;;;;16.11;39.12;99623.91;10327739;28;1103;-81
2024/01/13 22:07:49;;;;;;;;;;;;;;;16.11;38.99;99628.28;10327427;28;1894;-81
2024/01/13 22:12:47;;;;;;;;;;;;;;;16.11;39.13;99615.13;10326845;28;1063;-81
2024/01/13 22:17:43;;;;;;;;;;;;;;;16.09;39.07;99606.47;10327156;28;989;-81
2024/01/13 22:22:39;;;;;;;;;;;;;;;16.08;39.17;99596.84;10327592;28;938;-81
2024/01/13 22:27:35;;;;;;;;;;;;;;;16.06;39.36;99611.81;10326488;28;1981;-81
2024/01/13 22:32:31;;;;;;;;;;;;;;;16.06;38.96;99596.06;10327257;28;784;-81
2024/01/13 22:37:27;;;;;;;;;;;;;;;16.04;39.20;99587.41;10326931;28;830;-81
2024/01/13 22:42:23;;;;;;;;;;;;;;;16.05;38.70;99578.56;10326377;28;909;-81
2024/01/13 22:47:19;;;;;;;;;;;;;;;16.03;38.89;99572.50;10326741;28;1898;-81
2024/01/13 22:52:15;;;;;;;;;;;;;;;16.02;38.96;99548.00;10326716;28;885;-81
2024/01/13 22:57:10;;;;;;;;;;;;;;;15.99;39.29;99569.16;10326589;28;901;-81
2024/01/13 23:02:06;;;;;;;;;;;;;;;15.99;39.34;99571.78;10325743;28;763;-81
2024/01/13 23:07:02;;;;;;;;;;;;;;;15.97;39.26;99569.22;10326195;28;1894;-81
2024/01/13 23:11:58;;;;;;;;;;;;;;;15.97;39.18;99560.47;10325490;28;854;-80
2024/01/13 23:16:54;;;;;;;;;;;;;;;15.96;39.29;99567.50;10325471;28;774;-81
2024/01/13 23:21:50;;;;;;;;;;;;;;;16.00;39.08;99563.81;10325404;28;945;-81
2024/01/13 23:26:46;;;;;;;;;;;;;;;15.94;39.40;99558.81;10325158;28;1902;-80
2024/01/13 23:31:41;;;;;;;;;;;;;;;15.94;39.19;99550.94;10325745;28;893;-81
2024/01/13 23:36:38;;;;;;;;;;;;;;;15.95;39.41;99541.25;10324512;28;842;-81
2024/01/13 23:41:34;;;;;;;;;;;;;;;15.94;39.22;99547.44;10325032;28;845;-81
2024/01/13 23:46:30;;;;;;;;;;;;;;;15.93;39.31;99538.72;10325405;28;1897;-76
2024/01/13 23:51:26;;;;;;;;;;;;;;;15.92;39.32;99521.22;10324024;28;988;-79
2024/01/13 23:56:22;;;;;;;;;;;;;;;15.93;39.22;99517.69;10324666;28;826;-80
